Port Hope, Michigan
Current Conditions -  °F | °C
As of 8:15 AM on Friday 28 Nov 2014 (Local Time) from KBAX Reporting Station
Overcast Overcast  
Wind Chill: 11°   Ceiling: 3000
Heat Index: 19°   Visibility: 10mi
Dew Point: 10°   Wind: 6mph
Humidity: 68%   Direction: 310°NW
Pressure: 30.3"   Gusts: NA
Location:  43.94°N, 82.71°W
Report Text: KBAX 281315Z AUTO 31005KT 10SM OVC030 M07/M12 A3030 RMK AO2 T10701120
Loading
Personal Weather Stations






























Interactive Weather Map New forecast layout! Learn more

10-Day Weather Forecast

Advertisements
Track Severe Weather on mobile